sensor_id;sensor_type;location;lat;lon;timestamp;P1;durP1;ratioP1;P2;durP2;ratioP2
2888;SDS011;1453;42.708;23.282;2022-12-18T00:01:26;11.82;;;8.20;;
2888;SDS011;1453;42.708;23.282;2022-12-18T00:04:03;11.20;;;7.90;;
2888;SDS011;1453;42.708;23.282;2022-12-18T00:06:31;12.40;;;8.23;;
2888;SDS011;1453;42.708;23.282;2022-12-18T00:08:58;11.82;;;8.20;;
2888;SDS011;1453;42.708;23.282;2022-12-18T00:11:27;14.68;;;9.30;;
2888;SDS011;1453;42.708;23.282;2022-12-18T00:13:56;16.95;;;8.65;;
2888;SDS011;1453;42.708;23.282;2022-12-18T00:16:24;12.43;;;8.98;;
2888;SDS011;1453;42.708;23.282;2022-12-18T00:18:53;12.43;;;8.60;;
2888;SDS011;1453;42.708;23.282;2022-12-18T00:21:20;11.25;;;8.63;;
2888;SDS011;1453;42.708;23.282;2022-12-18T00:23:47;11.57;;;8.40;;
2888;SDS011;1453;42.708;23.282;2022-12-18T00:26:15;13.02;;;8.10;;
2888;SDS011;1453;42.708;23.282;2022-12-18T00:28:47;12.35;;;8.25;;
2888;SDS011;1453;42.708;23.282;2022-12-18T00:31:15;14.93;;;9.23;;
2888;SDS011;1453;42.708;23.282;2022-12-18T00:33:44;13.27;;;9.30;;
2888;SDS011;1453;42.708;23.282;2022-12-18T00:36:11;15.55;;;9.65;;
2888;SDS011;1453;42.708;23.282;2022-12-18T00:38:46;10.95;;;7.68;;
2888;SDS011;1453;42.708;23.282;2022-12-18T00:41:14;13.27;;;9.27;;
2888;SDS011;1453;42.708;23.282;2022-12-18T00:44:04;15.27;;;9.50;;
2888;SDS011;1453;42.708;23.282;2022-12-18T00:46:32;13.57;;;8.85;;
2888;SDS011;1453;42.708;23.282;2022-12-18T00:48:59;10.85;;;7.65;;
2888;SDS011;1453;42.708;23.282;2022-12-18T00:51:25;15.50;;;8.20;;
2888;SDS011;1453;42.708;23.282;2022-12-18T00:53:51;10.95;;;8.15;;
2888;SDS011;1453;42.708;23.282;2022-12-18T00:56:18;11.45;;;7.10;;
2888;SDS011;1453;42.708;23.282;2022-12-18T00:58:46;10.18;;;7.50;;
2888;SDS011;1453;42.708;23.282;2022-12-18T01:01:12;10.17;;;7.80;;
2888;SDS011;1453;42.708;23.282;2022-12-18T01:03:38;11.57;;;7.37;;
2888;SDS011;1453;42.708;23.282;2022-12-18T01:06:08;13.07;;;7.43;;
2888;SDS011;1453;42.708;23.282;2022-12-18T01:08:36;16.00;;;9.88;;
2888;SDS011;1453;42.708;23.282;2022-12-18T01:11:07;14.85;;;8.95;;
2888;SDS011;1453;42.708;23.282;2022-12-18T01:13:42;13.38;;;8.95;;
2888;SDS011;1453;42.708;23.282;2022-12-18T01:16:10;16.10;;;10.35;;
2888;SDS011;1453;42.708;23.282;2022-12-18T01:18:38;15.77;;;10.38;;
2888;SDS011;1453;42.708;23.282;2022-12-18T01:21:07;16.83;;;8.00;;
2888;SDS011;1453;42.708;23.282;2022-12-18T01:23:36;13.10;;;8.63;;
2888;SDS011;1453;42.708;23.282;2022-12-18T01:26:06;19.45;;;11.15;;
2888;SDS011;1453;42.708;23.282;2022-12-18T01:28:35;15.80;;;9.77;;
2888;SDS011;1453;42.708;23.282;2022-12-18T01:31:15;15.40;;;10.20;;
2888;SDS011;1453;42.708;23.282;2022-12-18T01:33:47;16.73;;;10.68;;
2888;SDS011;1453;42.708;23.282;2022-12-18T01:36:20;14.60;;;10.53;;
2888;SDS011;1453;42.708;23.282;2022-12-18T01:38:49;14.32;;;8.57;;
2888;SDS011;1453;42.708;23.282;2022-12-18T01:41:18;14.15;;;9.23;;
2888;SDS011;1453;42.708;23.282;2022-12-18T01:46:23;15.55;;;9.35;;
2888;SDS011;1453;42.708;23.282;2022-12-18T01:48:59;16.92;;;9.77;;
2888;SDS011;1453;42.708;23.282;2022-12-18T01:51:29;10.10;;;7.00;;
2888;SDS011;1453;42.708;23.282;2022-12-18T01:53:55;19.88;;;10.23;;
2888;SDS011;1453;42.708;23.282;2022-12-18T01:56:22;14.32;;;10.10;;
2888;SDS011;1453;42.708;23.282;2022-12-18T01:59:09;15.07;;;10.43;;
2888;SDS011;1453;42.708;23.282;2022-12-18T02:01:35;13.18;;;8.38;;
2888;SDS011;1453;42.708;23.282;2022-12-18T02:04:24;13.73;;;8.55;;
2888;SDS011;1453;42.708;23.282;2022-12-18T02:10:12;12.68;;;7.40;;
2888;SDS011;1453;42.708;23.282;2022-12-18T02:15:41;13.23;;;8.57;;
2888;SDS011;1453;42.708;23.282;2022-12-18T02:18:24;10.27;;;6.90;;
2888;SDS011;1453;42.708;23.282;2022-12-18T02:21:12;11.18;;;8.07;;
2888;SDS011;1453;42.708;23.282;2022-12-18T02:26:41;10.15;;;7.10;;
2888;SDS011;1453;42.708;23.282;2022-12-18T02:29:16;11.32;;;8.23;;
2888;SDS011;1453;42.708;23.282;2022-12-18T02:31:50;11.40;;;6.82;;
2888;SDS011;1453;42.708;23.282;2022-12-18T02:34:20;13.98;;;7.80;;
2888;SDS011;1453;42.708;23.282;2022-12-18T02:36:51;13.65;;;8.32;;
2888;SDS011;1453;42.708;23.282;2022-12-18T02:39:19;14.38;;;9.32;;
2888;SDS011;1453;42.708;23.282;2022-12-18T02:41:47;11.27;;;8.90;;
2888;SDS011;1453;42.708;23.282;2022-12-18T02:44:13;13.50;;;9.03;;
2888;SDS011;1453;42.708;23.282;2022-12-18T02:46:43;13.05;;;7.80;;
2888;SDS011;1453;42.708;23.282;2022-12-18T02:49:18;14.73;;;9.35;;
2888;SDS011;1453;42.708;23.282;2022-12-18T03:00:10;10.70;;;7.75;;
2888;SDS011;1453;42.708;23.282;2022-12-18T03:07:58;13.88;;;8.18;;
2888;SDS011;1453;42.708;23.282;2022-12-18T03:10:32;13.35;;;8.93;;
2888;SDS011;1453;42.708;23.282;2022-12-18T03:13:12;12.25;;;8.60;;
2888;SDS011;1453;42.708;23.282;2022-12-18T03:16:02;12.80;;;8.63;;
2888;SDS011;1453;42.708;23.282;2022-12-18T03:18:34;12.85;;;8.73;;
2888;SDS011;1453;42.708;23.282;2022-12-18T03:21:10;14.32;;;9.75;;
2888;SDS011;1453;42.708;23.282;2022-12-18T03:23:40;13.82;;;9.55;;
2888;SDS011;1453;42.708;23.282;2022-12-18T03:26:11;11.73;;;8.20;;
2888;SDS011;1453;42.708;23.282;2022-12-18T03:28:49;15.77;;;10.13;;
2888;SDS011;1453;42.708;23.282;2022-12-18T03:31:19;14.75;;;9.48;;
2888;SDS011;1453;42.708;23.282;2022-12-18T03:33:53;13.70;;;9.63;;
2888;SDS011;1453;42.708;23.282;2022-12-18T03:36:25;13.25;;;8.80;;
2888;SDS011;1453;42.708;23.282;2022-12-18T03:38:51;11.05;;;7.75;;
2888;SDS011;1453;42.708;23.282;2022-12-18T03:44:10;14.50;;;7.63;;
2888;SDS011;1453;42.708;23.282;2022-12-18T03:49:35;11.40;;;7.88;;
2888;SDS011;1453;42.708;23.282;2022-12-18T03:52:25;13.45;;;8.25;;
2888;SDS011;1453;42.708;23.282;2022-12-18T03:54:56;14.73;;;8.55;;
2888;SDS011;1453;42.708;23.282;2022-12-18T03:57:24;10.07;;;6.95;;
2888;SDS011;1453;42.708;23.282;2022-12-18T03:59:55;10.70;;;8.32;;
2888;SDS011;1453;42.708;23.282;2022-12-18T04:02:33;16.75;;;9.27;;
2888;SDS011;1453;42.708;23.282;2022-12-18T04:05:03;14.55;;;9.30;;
2888;SDS011;1453;42.708;23.282;2022-12-18T04:07:32;14.98;;;9.25;;
2888;SDS011;1453;42.708;23.282;2022-12-18T04:09:58;15.15;;;9.23;;
2888;SDS011;1453;42.708;23.282;2022-12-18T04:12:26;13.80;;;9.93;;
2888;SDS011;1453;42.708;23.282;2022-12-18T04:14:54;15.82;;;11.48;;
2888;SDS011;1453;42.708;23.282;2022-12-18T04:17:20;16.38;;;10.90;;
2888;SDS011;1453;42.708;23.282;2022-12-18T04:19:47;18.25;;;11.68;;
2888;SDS011;1453;42.708;23.282;2022-12-18T04:22:13;16.80;;;9.90;;
2888;SDS011;1453;42.708;23.282;2022-12-18T04:24:39;11.20;;;7.53;;
2888;SDS011;1453;42.708;23.282;2022-12-18T04:27:06;14.47;;;8.17;;
2888;SDS011;1453;42.708;23.282;2022-12-18T04:29:32;13.55;;;8.65;;
2888;SDS011;1453;42.708;23.282;2022-12-18T04:31:57;19.70;;;10.40;;
2888;SDS011;1453;42.708;23.282;2022-12-18T04:34:23;17.77;;;9.23;;
2888;SDS011;1453;42.708;23.282;2022-12-18T04:36:49;21.43;;;13.33;;
2888;SDS011;1453;42.708;23.282;2022-12-18T04:39:15;16.00;;;10.60;;
2888;SDS011;1453;42.708;23.282;2022-12-18T04:41:42;16.23;;;10.30;;
2888;SDS011;1453;42.708;23.282;2022-12-18T04:44:08;19.40;;;11.30;;
2888;SDS011;1453;42.708;23.282;2022-12-18T04:46:33;16.80;;;10.53;;
2888;SDS011;1453;42.708;23.282;2022-12-18T04:48:59;21.17;;;11.97;;
2888;SDS011;1453;42.708;23.282;2022-12-18T04:51:25;18.70;;;11.70;;
2888;SDS011;1453;42.708;23.282;2022-12-18T04:53:51;16.67;;;8.77;;
2888;SDS011;1453;42.708;23.282;2022-12-18T04:56:16;19.37;;;12.10;;
2888;SDS011;1453;42.708;23.282;2022-12-18T04:58:43;21.90;;;11.67;;
2888;SDS011;1453;42.708;23.282;2022-12-18T05:01:10;26.92;;;14.73;;
2888;SDS011;1453;42.708;23.282;2022-12-18T05:03:39;21.23;;;11.90;;
2888;SDS011;1453;42.708;23.282;2022-12-18T05:06:05;21.42;;;12.23;;
2888;SDS011;1453;42.708;23.282;2022-12-18T05:08:32;20.15;;;12.45;;
2888;SDS011;1453;42.708;23.282;2022-12-18T05:10:59;16.85;;;10.20;;
2888;SDS011;1453;42.708;23.282;2022-12-18T05:13:32;19.80;;;11.48;;
2888;SDS011;1453;42.708;23.282;2022-12-18T05:15:58;23.27;;;13.98;;
2888;SDS011;1453;42.708;23.282;2022-12-18T05:18:24;19.13;;;10.00;;
2888;SDS011;1453;42.708;23.282;2022-12-18T05:20:51;15.70;;;9.05;;
2888;SDS011;1453;42.708;23.282;2022-12-18T05:23:19;17.17;;;10.75;;
2888;SDS011;1453;42.708;23.282;2022-12-18T05:26:05;17.55;;;9.00;;
2888;SDS011;1453;42.708;23.282;2022-12-18T05:28:33;17.88;;;11.32;;
2888;SDS011;1453;42.708;23.282;2022-12-18T05:31:01;19.92;;;11.45;;
2888;SDS011;1453;42.708;23.282;2022-12-18T05:33:29;19.55;;;11.48;;
2888;SDS011;1453;42.708;23.282;2022-12-18T05:35:58;17.83;;;10.52;;
2888;SDS011;1453;42.708;23.282;2022-12-18T05:38:30;20.75;;;12.02;;
2888;SDS011;1453;42.708;23.282;2022-12-18T05:40:58;23.67;;;13.38;;
2888;SDS011;1453;42.708;23.282;2022-12-18T05:43:25;17.30;;;11.47;;
2888;SDS011;1453;42.708;23.282;2022-12-18T05:45:52;20.67;;;12.90;;
2888;SDS011;1453;42.708;23.282;2022-12-18T05:48:19;19.92;;;12.88;;
2888;SDS011;1453;42.708;23.282;2022-12-18T05:50:46;23.52;;;13.75;;
2888;SDS011;1453;42.708;23.282;2022-12-18T05:53:15;19.60;;;12.25;;
2888;SDS011;1453;42.708;23.282;2022-12-18T05:55:44;22.83;;;13.40;;
2888;SDS011;1453;42.708;23.282;2022-12-18T05:58:11;22.67;;;13.10;;
2888;SDS011;1453;42.708;23.282;2022-12-18T06:00:39;20.02;;;11.93;;
2888;SDS011;1453;42.708;23.282;2022-12-18T06:03:09;14.75;;;8.65;;
2888;SDS011;1453;42.708;23.282;2022-12-18T06:05:37;24.35;;;12.55;;
2888;SDS011;1453;42.708;23.282;2022-12-18T06:08:05;22.85;;;13.10;;
2888;SDS011;1453;42.708;23.282;2022-12-18T06:10:32;22.60;;;13.20;;
2888;SDS011;1453;42.708;23.282;2022-12-18T06:12:58;24.07;;;14.10;;
2888;SDS011;1453;42.708;23.282;2022-12-18T06:15:25;27.90;;;13.82;;
2888;SDS011;1453;42.708;23.282;2022-12-18T06:17:51;21.63;;;13.60;;
2888;SDS011;1453;42.708;23.282;2022-12-18T06:20:16;22.13;;;12.23;;
2888;SDS011;1453;42.708;23.282;2022-12-18T06:22:42;24.53;;;14.53;;
2888;SDS011;1453;42.708;23.282;2022-12-18T06:25:08;21.20;;;12.50;;
2888;SDS011;1453;42.708;23.282;2022-12-18T06:27:34;26.90;;;13.30;;
2888;SDS011;1453;42.708;23.282;2022-12-18T06:30:00;24.53;;;13.10;;
2888;SDS011;1453;42.708;23.282;2022-12-18T06:32:26;22.27;;;11.80;;
2888;SDS011;1453;42.708;23.282;2022-12-18T06:34:52;20.92;;;14.02;;
2888;SDS011;1453;42.708;23.282;2022-12-18T06:37:18;26.80;;;14.75;;
2888;SDS011;1453;42.708;23.282;2022-12-18T06:39:44;21.67;;;12.23;;
2888;SDS011;1453;42.708;23.282;2022-12-18T06:42:10;20.03;;;10.40;;
2888;SDS011;1453;42.708;23.282;2022-12-18T06:44:36;23.90;;;12.63;;
2888;SDS011;1453;42.708;23.282;2022-12-18T06:47:02;20.73;;;12.00;;
2888;SDS011;1453;42.708;23.282;2022-12-18T06:49:28;14.40;;;8.67;;
2888;SDS011;1453;42.708;23.282;2022-12-18T06:51:54;19.93;;;10.67;;
2888;SDS011;1453;42.708;23.282;2022-12-18T06:54:20;24.47;;;13.33;;
2888;SDS011;1453;42.708;23.282;2022-12-18T06:56:46;14.83;;;8.70;;
2888;SDS011;1453;42.708;23.282;2022-12-18T06:59:12;18.00;;;10.87;;
2888;SDS011;1453;42.708;23.282;2022-12-18T07:01:39;16.58;;;10.30;;
2888;SDS011;1453;42.708;23.282;2022-12-18T07:04:05;21.20;;;12.97;;
2888;SDS011;1453;42.708;23.282;2022-12-18T07:06:31;19.83;;;10.77;;
2888;SDS011;1453;42.708;23.282;2022-12-18T07:08:57;18.10;;;12.23;;
2888;SDS011;1453;42.708;23.282;2022-12-18T07:11:23;25.40;;;10.50;;
2888;SDS011;1453;42.708;23.282;2022-12-18T07:13:49;22.38;;;13.82;;
2888;SDS011;1453;42.708;23.282;2022-12-18T07:16:18;18.47;;;10.73;;
2888;SDS011;1453;42.708;23.282;2022-12-18T07:18:47;18.45;;;10.10;;
2888;SDS011;1453;42.708;23.282;2022-12-18T07:21:14;23.10;;;11.50;;
2888;SDS011;1453;42.708;23.282;2022-12-18T07:23:42;24.25;;;14.25;;
2888;SDS011;1453;42.708;23.282;2022-12-18T07:26:10;27.63;;;13.98;;
2888;SDS011;1453;42.708;23.282;2022-12-18T07:28:38;23.58;;;11.07;;
2888;SDS011;1453;42.708;23.282;2022-12-18T07:31:09;25.15;;;12.80;;
2888;SDS011;1453;42.708;23.282;2022-12-18T07:33:39;23.63;;;12.70;;
2888;SDS011;1453;42.708;23.282;2022-12-18T07:36:06;31.63;;;14.40;;
2888;SDS011;1453;42.708;23.282;2022-12-18T07:38:34;27.73;;;13.75;;
2888;SDS011;1453;42.708;23.282;2022-12-18T07:41:01;23.17;;;13.02;;
2888;SDS011;1453;42.708;23.282;2022-12-18T07:43:28;25.08;;;13.98;;
2888;SDS011;1453;42.708;23.282;2022-12-18T07:45:57;22.38;;;12.43;;
2888;SDS011;1453;42.708;23.282;2022-12-18T07:48:22;26.92;;;14.85;;
2888;SDS011;1453;42.708;23.282;2022-12-18T07:50:48;27.40;;;15.80;;
2888;SDS011;1453;42.708;23.282;2022-12-18T07:53:14;24.97;;;13.80;;
2888;SDS011;1453;42.708;23.282;2022-12-18T07:55:40;28.20;;;15.17;;
2888;SDS011;1453;42.708;23.282;2022-12-18T07:58:07;24.77;;;13.65;;
2888;SDS011;1453;42.708;23.282;2022-12-18T08:00:33;28.58;;;15.88;;
2888;SDS011;1453;42.708;23.282;2022-12-18T08:03:00;25.13;;;15.57;;
2888;SDS011;1453;42.708;23.282;2022-12-18T08:05:26;29.02;;;17.38;;
2888;SDS011;1453;42.708;23.282;2022-12-18T08:07:52;24.88;;;14.57;;
2888;SDS011;1453;42.708;23.282;2022-12-18T08:10:19;26.08;;;15.73;;
2888;SDS011;1453;42.708;23.282;2022-12-18T08:12:45;27.05;;;14.73;;
2888;SDS011;1453;42.708;23.282;2022-12-18T08:15:15;26.98;;;13.02;;
2888;SDS011;1453;42.708;23.282;2022-12-18T08:17:42;28.80;;;16.58;;
2888;SDS011;1453;42.708;23.282;2022-12-18T08:20:07;25.83;;;14.80;;
2888;SDS011;1453;42.708;23.282;2022-12-18T08:22:37;17.98;;;11.02;;
2888;SDS011;1453;42.708;23.282;2022-12-18T08:25:04;29.73;;;15.65;;
2888;SDS011;1453;42.708;23.282;2022-12-18T08:27:30;24.52;;;14.13;;
2888;SDS011;1453;42.708;23.282;2022-12-18T08:29:56;25.07;;;13.80;;
2888;SDS011;1453;42.708;23.282;2022-12-18T08:32:24;25.80;;;13.98;;
2888;SDS011;1453;42.708;23.282;2022-12-18T08:34:52;24.40;;;13.45;;
2888;SDS011;1453;42.708;23.282;2022-12-18T08:37:17;29.63;;;15.10;;
2888;SDS011;1453;42.708;23.282;2022-12-18T08:39:43;26.57;;;14.23;;
2888;SDS011;1453;42.708;23.282;2022-12-18T08:42:09;33.13;;;15.60;;
2888;SDS011;1453;42.708;23.282;2022-12-18T08:44:54;26.20;;;14.80;;
2888;SDS011;1453;42.708;23.282;2022-12-18T08:47:20;28.70;;;15.07;;
2888;SDS011;1453;42.708;23.282;2022-12-18T08:49:45;26.97;;;14.40;;
2888;SDS011;1453;42.708;23.282;2022-12-18T08:52:14;19.60;;;12.20;;
2888;SDS011;1453;42.708;23.282;2022-12-18T08:54:40;20.20;;;11.63;;
2888;SDS011;1453;42.708;23.282;2022-12-18T08:57:06;25.37;;;13.60;;
2888;SDS011;1453;42.708;23.282;2022-12-18T08:59:31;23.30;;;13.40;;
2888;SDS011;1453;42.708;23.282;2022-12-18T09:01:57;24.93;;;13.90;;
2888;SDS011;1453;42.708;23.282;2022-12-18T09:04:23;22.27;;;10.80;;
2888;SDS011;1453;42.708;23.282;2022-12-18T09:06:49;21.77;;;12.30;;
2888;SDS011;1453;42.708;23.282;2022-12-18T09:09:14;24.13;;;14.17;;
2888;SDS011;1453;42.708;23.282;2022-12-18T09:11:40;25.77;;;12.77;;
2888;SDS011;1453;42.708;23.282;2022-12-18T09:14:06;19.57;;;11.33;;
2888;SDS011;1453;42.708;23.282;2022-12-18T09:16:32;19.97;;;10.90;;
2888;SDS011;1453;42.708;23.282;2022-12-18T09:19:00;20.55;;;11.48;;
2888;SDS011;1453;42.708;23.282;2022-12-18T09:21:29;23.58;;;12.80;;
2888;SDS011;1453;42.708;23.282;2022-12-18T09:23:58;18.42;;;10.43;;
2888;SDS011;1453;42.708;23.282;2022-12-18T09:26:24;21.75;;;12.93;;
2888;SDS011;1453;42.708;23.282;2022-12-18T09:28:51;27.40;;;14.38;;
2888;SDS011;1453;42.708;23.282;2022-12-18T09:31:18;18.30;;;12.18;;
2888;SDS011;1453;42.708;23.282;2022-12-18T09:33:47;12.73;;;7.45;;
2888;SDS011;1453;42.708;23.282;2022-12-18T09:36:14;21.37;;;11.80;;
2888;SDS011;1453;42.708;23.282;2022-12-18T09:38:42;20.33;;;11.07;;
2888;SDS011;1453;42.708;23.282;2022-12-18T09:47:24;20.77;;;12.38;;
2888;SDS011;1453;42.708;23.282;2022-12-18T09:49:58;22.45;;;13.30;;
2888;SDS011;1453;42.708;23.282;2022-12-18T09:52:37;18.42;;;10.63;;
2888;SDS011;1453;42.708;23.282;2022-12-18T09:55:16;20.55;;;12.45;;
2888;SDS011;1453;42.708;23.282;2022-12-18T10:00:35;20.00;;;12.53;;
2888;SDS011;1453;42.708;23.282;2022-12-18T10:03:03;22.92;;;12.90;;
2888;SDS011;1453;42.708;23.282;2022-12-18T10:14:20;18.83;;;11.43;;
2888;SDS011;1453;42.708;23.282;2022-12-18T10:26:10;18.55;;;10.77;;
2888;SDS011;1453;42.708;23.282;2022-12-18T10:28:37;23.95;;;14.23;;
2888;SDS011;1453;42.708;23.282;2022-12-18T10:31:06;18.50;;;11.77;;
2888;SDS011;1453;42.708;23.282;2022-12-18T10:33:37;23.15;;;13.27;;
2888;SDS011;1453;42.708;23.282;2022-12-18T10:36:03;22.33;;;13.33;;
2888;SDS011;1453;42.708;23.282;2022-12-18T10:38:31;23.75;;;11.82;;
2888;SDS011;1453;42.708;23.282;2022-12-18T10:43:33;22.63;;;13.90;;
2888;SDS011;1453;42.708;23.282;2022-12-18T10:48:35;20.95;;;12.98;;
2888;SDS011;1453;42.708;23.282;2022-12-18T10:51:19;22.55;;;14.63;;
2888;SDS011;1453;42.708;23.282;2022-12-18T10:56:24;19.30;;;12.13;;
2888;SDS011;1453;42.708;23.282;2022-12-18T10:58:59;18.67;;;12.10;;
2888;SDS011;1453;42.708;23.282;2022-12-18T11:01:28;19.02;;;10.60;;
2888;SDS011;1453;42.708;23.282;2022-12-18T11:09:21;23.70;;;12.75;;
2888;SDS011;1453;42.708;23.282;2022-12-18T11:11:50;19.70;;;12.70;;
2888;SDS011;1453;42.708;23.282;2022-12-18T11:14:25;22.60;;;12.23;;
2888;SDS011;1453;42.708;23.282;2022-12-18T11:16:59;24.33;;;13.07;;
2888;SDS011;1453;42.708;23.282;2022-12-18T11:22:47;25.90;;;12.65;;
2888;SDS011;1453;42.708;23.282;2022-12-18T11:25:00;21.42;;;12.68;;
2888;SDS011;1453;42.708;23.282;2022-12-18T11:27:30;21.45;;;12.38;;
2888;SDS011;1453;42.708;23.282;2022-12-18T11:30:13;19.92;;;12.15;;
2888;SDS011;1453;42.708;23.282;2022-12-18T11:32:47;18.52;;;11.50;;
2888;SDS011;1453;42.708;23.282;2022-12-18T11:38:32;22.13;;;12.35;;
2888;SDS011;1453;42.708;23.282;2022-12-18T11:41:16;18.85;;;11.43;;
2888;SDS011;1453;42.708;23.282;2022-12-18T11:44:15;18.38;;;10.88;;
2888;SDS011;1453;42.708;23.282;2022-12-18T11:46:52;24.38;;;13.27;;
2888;SDS011;1453;42.708;23.282;2022-12-18T11:49:27;18.42;;;9.63;;
2888;SDS011;1453;42.708;23.282;2022-12-18T11:54:52;22.25;;;12.88;;
2888;SDS011;1453;42.708;23.282;2022-12-18T12:00:21;24.92;;;14.88;;
2888;SDS011;1453;42.708;23.282;2022-12-18T12:05:36;23.40;;;14.30;;
2888;SDS011;1453;42.708;23.282;2022-12-18T12:11:10;21.60;;;13.02;;
2888;SDS011;1453;42.708;23.282;2022-12-18T12:23:06;23.58;;;15.05;;
2888;SDS011;1453;42.708;23.282;2022-12-18T12:34:26;22.35;;;13.60;;
2888;SDS011;1453;42.708;23.282;2022-12-18T12:37:28;21.88;;;11.25;;
2888;SDS011;1453;42.708;23.282;2022-12-18T12:40:04;29.52;;;15.73;;
2888;SDS011;1453;42.708;23.282;2022-12-18T12:45:16;19.38;;;11.43;;
2888;SDS011;1453;42.708;23.282;2022-12-18T12:48:11;28.92;;;14.75;;
2888;SDS011;1453;42.708;23.282;2022-12-18T12:51:21;27.20;;;14.77;;
2888;SDS011;1453;42.708;23.282;2022-12-18T12:53:51;24.88;;;14.23;;
2888;SDS011;1453;42.708;23.282;2022-12-18T12:56:20;23.98;;;12.10;;
2888;SDS011;1453;42.708;23.282;2022-12-18T13:01:38;22.20;;;13.65;;
2888;SDS011;1453;42.708;23.282;2022-12-18T13:07:51;21.52;;;11.20;;
2888;SDS011;1453;42.708;23.282;2022-12-18T13:10:23;17.88;;;10.02;;
2888;SDS011;1453;42.708;23.282;2022-12-18T13:16:25;20.52;;;11.35;;
2888;SDS011;1453;42.708;23.282;2022-12-18T13:18:32;21.10;;;12.68;;
2888;SDS011;1453;42.708;23.282;2022-12-18T13:30:58;26.40;;;13.00;;
2888;SDS011;1453;42.708;23.282;2022-12-18T13:36:01;21.92;;;13.15;;
2888;SDS011;1453;42.708;23.282;2022-12-18T13:38:45;18.95;;;11.80;;
2888;SDS011;1453;42.708;23.282;2022-12-18T13:46:21;20.15;;;12.82;;
2888;SDS011;1453;42.708;23.282;2022-12-18T13:51:23;19.92;;;11.10;;
2888;SDS011;1453;42.708;23.282;2022-12-18T13:56:23;23.08;;;12.85;;
2888;SDS011;1453;42.708;23.282;2022-12-18T14:01:42;16.40;;;10.02;;
2888;SDS011;1453;42.708;23.282;2022-12-18T14:04:26;22.73;;;12.52;;
2888;SDS011;1453;42.708;23.282;2022-12-18T14:06:57;24.42;;;11.15;;
2888;SDS011;1453;42.708;23.282;2022-12-18T14:09:37;19.55;;;10.43;;
2888;SDS011;1453;42.708;23.282;2022-12-18T14:12:21;19.10;;;11.07;;
2888;SDS011;1453;42.708;23.282;2022-12-18T14:15:15;19.02;;;11.73;;
2888;SDS011;1453;42.708;23.282;2022-12-18T14:17:52;19.65;;;10.70;;
2888;SDS011;1453;42.708;23.282;2022-12-18T14:20:59;15.48;;;8.93;;
2888;SDS011;1453;42.708;23.282;2022-12-18T14:23:35;23.70;;;11.40;;
2888;SDS011;1453;42.708;23.282;2022-12-18T14:28:59;19.65;;;9.38;;
2888;SDS011;1453;42.708;23.282;2022-12-18T14:31:43;20.88;;;11.82;;
2888;SDS011;1453;42.708;23.282;2022-12-18T14:34:14;22.40;;;10.60;;
2888;SDS011;1453;42.708;23.282;2022-12-18T14:36:41;19.67;;;10.82;;
2888;SDS011;1453;42.708;23.282;2022-12-18T14:39:18;22.45;;;10.15;;
2888;SDS011;1453;42.708;23.282;2022-12-18T14:41:44;22.00;;;10.00;;
2888;SDS011;1453;42.708;23.282;2022-12-18T14:44:11;19.50;;;11.60;;
2888;SDS011;1453;42.708;23.282;2022-12-18T14:46:38;19.55;;;10.00;;
2888;SDS011;1453;42.708;23.282;2022-12-18T14:52:05;18.33;;;10.13;;
2888;SDS011;1453;42.708;23.282;2022-12-18T14:54:46;16.85;;;9.60;;
2888;SDS011;1453;42.708;23.282;2022-12-18T14:59:48;16.13;;;10.15;;
2888;SDS011;1453;42.708;23.282;2022-12-18T15:02:18;18.85;;;9.93;;
2888;SDS011;1453;42.708;23.282;2022-12-18T15:05:03;18.48;;;10.88;;
2888;SDS011;1453;42.708;23.282;2022-12-18T15:07:41;18.30;;;9.45;;
2888;SDS011;1453;42.708;23.282;2022-12-18T15:20:48;22.13;;;11.35;;
2888;SDS011;1453;42.708;23.282;2022-12-18T15:25:43;17.15;;;9.80;;
2888;SDS011;1453;42.708;23.282;2022-12-18T15:28:19;17.23;;;9.20;;
2888;SDS011;1453;42.708;23.282;2022-12-18T15:31:33;16.75;;;9.50;;
2888;SDS011;1453;42.708;23.282;2022-12-18T15:33:42;20.98;;;9.65;;
2888;SDS011;1453;42.708;23.282;2022-12-18T15:36:39;26.63;;;11.50;;
2888;SDS011;1453;42.708;23.282;2022-12-18T15:39:05;15.98;;;9.82;;
2888;SDS011;1453;42.708;23.282;2022-12-18T15:41:32;19.30;;;11.23;;
2888;SDS011;1453;42.708;23.282;2022-12-18T15:44:00;19.42;;;10.70;;
2888;SDS011;1453;42.708;23.282;2022-12-18T15:46:26;21.43;;;12.03;;
2888;SDS011;1453;42.708;23.282;2022-12-18T15:48:56;25.10;;;13.68;;
2888;SDS011;1453;42.708;23.282;2022-12-18T15:51:23;23.05;;;13.18;;
2888;SDS011;1453;42.708;23.282;2022-12-18T15:54:00;24.13;;;11.15;;
2888;SDS011;1453;42.708;23.282;2022-12-18T15:56:29;23.27;;;13.82;;
2888;SDS011;1453;42.708;23.282;2022-12-18T15:59:15;21.45;;;9.65;;
2888;SDS011;1453;42.708;23.282;2022-12-18T16:01:44;22.83;;;12.25;;
2888;SDS011;1453;42.708;23.282;2022-12-18T16:04:16;19.20;;;10.77;;
2888;SDS011;1453;42.708;23.282;2022-12-18T16:06:45;25.23;;;13.63;;
2888;SDS011;1453;42.708;23.282;2022-12-18T16:09:12;22.17;;;12.00;;
2888;SDS011;1453;42.708;23.282;2022-12-18T16:11:38;22.90;;;12.30;;
2888;SDS011;1453;42.708;23.282;2022-12-18T16:14:17;24.50;;;13.98;;
2888;SDS011;1453;42.708;23.282;2022-12-18T16:16:52;19.65;;;11.23;;
2888;SDS011;1453;42.708;23.282;2022-12-18T16:19:22;23.95;;;11.32;;
2888;SDS011;1453;42.708;23.282;2022-12-18T16:21:49;21.30;;;12.43;;
2888;SDS011;1453;42.708;23.282;2022-12-18T16:26:46;24.95;;;13.32;;
2888;SDS011;1453;42.708;23.282;2022-12-18T16:29:13;26.55;;;13.80;;
2888;SDS011;1453;42.708;23.282;2022-12-18T16:31:39;15.73;;;9.38;;
2888;SDS011;1453;42.708;23.282;2022-12-18T16:34:22;23.52;;;12.10;;
2888;SDS011;1453;42.708;23.282;2022-12-18T16:36:53;19.65;;;10.45;;
2888;SDS011;1453;42.708;23.282;2022-12-18T16:39:25;26.67;;;13.45;;
2888;SDS011;1453;42.708;23.282;2022-12-18T16:41:51;23.67;;;13.15;;
2888;SDS011;1453;42.708;23.282;2022-12-18T16:44:17;25.10;;;13.10;;
2888;SDS011;1453;42.708;23.282;2022-12-18T16:46:43;18.33;;;10.80;;
2888;SDS011;1453;42.708;23.282;2022-12-18T16:49:13;28.08;;;13.30;;
2888;SDS011;1453;42.708;23.282;2022-12-18T16:51:41;23.20;;;12.85;;
2888;SDS011;1453;42.708;23.282;2022-12-18T16:54:07;18.38;;;10.25;;
2888;SDS011;1453;42.708;23.282;2022-12-18T16:56:33;27.83;;;13.73;;
2888;SDS011;1453;42.708;23.282;2022-12-18T16:59:00;26.47;;;13.20;;
2888;SDS011;1453;42.708;23.282;2022-12-18T17:01:27;20.85;;;12.77;;
2888;SDS011;1453;42.708;23.282;2022-12-18T17:03:56;24.80;;;13.63;;
2888;SDS011;1453;42.708;23.282;2022-12-18T17:06:25;23.95;;;12.63;;
2888;SDS011;1453;42.708;23.282;2022-12-18T17:08:56;22.85;;;13.43;;
2888;SDS011;1453;42.708;23.282;2022-12-18T17:11:28;30.20;;;13.70;;
2888;SDS011;1453;42.708;23.282;2022-12-18T17:13:56;23.70;;;12.82;;
2888;SDS011;1453;42.708;23.282;2022-12-18T17:16:23;23.23;;;12.33;;
2888;SDS011;1453;42.708;23.282;2022-12-18T17:18:51;24.73;;;12.48;;
2888;SDS011;1453;42.708;23.282;2022-12-18T17:21:17;22.63;;;11.77;;
2888;SDS011;1453;42.708;23.282;2022-12-18T17:23:43;22.50;;;12.65;;
2888;SDS011;1453;42.708;23.282;2022-12-18T17:26:10;23.47;;;12.83;;
2888;SDS011;1453;42.708;23.282;2022-12-18T17:28:38;25.55;;;12.60;;
2888;SDS011;1453;42.708;23.282;2022-12-18T17:33:39;29.48;;;13.45;;
2888;SDS011;1453;42.708;23.282;2022-12-18T17:36:05;23.23;;;12.77;;
2888;SDS011;1453;42.708;23.282;2022-12-18T17:38:31;19.17;;;11.43;;
2888;SDS011;1453;42.708;23.282;2022-12-18T17:41:01;25.60;;;13.47;;
2888;SDS011;1453;42.708;23.282;2022-12-18T17:43:28;24.80;;;13.30;;
2888;SDS011;1453;42.708;23.282;2022-12-18T17:45:54;26.20;;;14.23;;
2888;SDS011;1453;42.708;23.282;2022-12-18T17:48:20;28.70;;;12.60;;